KGTR/GTR METAR and TAF weather

Enter ICAO airport designator
Station Type Date Time Source
KGTR METAR 2020/04/03 06:56 UTC NOAA

KGTR 030656Z AUTO 00000KT 10SM CLR 11/10 A3002 RMK AO2 SLP174 T01110100


Station Type Date Time Source
KGTR Decoded METAR 2020/04/03 06:56 UTC NOAA

Columbus/West Point/Starkville, Golden Triangle Regional Airport, MS, United States (KGTR) 33-27N 088-35W
Apr 03, 2020 - 02:56 AM EDT / 2020.04.03 0656 UTC
Wind: Calm:0
Visibility: 10 mile(s):0
Sky conditions: clear
Temperature: 52.0 F (11.1 C)
Dew Point: 50.0 F (10.0 C)
Relative Humidity: 92%
Pressure (altimeter): 30.02 in. Hg (1016 hPa)
ob: KGTR 030656Z AUTO 00000KT 10SM CLR 11/10 A3002 RMK AO2 SLP174 T01110100
cycle: 7

Station Type Date Time Source
KGTR TAF 2020/04/03 06:58 UTC NOAA

TAF KGTR 030558Z 0306/0406 16003KT P6SM SCT180 BKN250

Example: see airport list